createdAt,value
2022-10-06T00:03:31.992Z,44
2022-10-06T00:09:12.232Z,50
2022-10-06T00:14:53.396Z,46
2022-10-06T00:20:34.213Z,52
2022-10-06T00:26:14.620Z,44
2022-10-06T00:31:55.063Z,42
2022-10-06T00:37:35.386Z,38
2022-10-06T00:43:16.264Z,48
2022-10-06T00:48:57.134Z,58
2022-10-06T00:54:37.401Z,46
2022-10-06T01:00:17.705Z,44
2022-10-06T01:05:58.043Z,50
2022-10-06T01:17:19.064Z,54
2022-10-06T01:22:59.315Z,42
2022-10-06T01:28:40.334Z,42
2022-10-06T01:34:21.464Z,56
2022-10-06T01:40:02.145Z,48
2022-10-06T01:45:42.600Z,46
2022-10-06T01:51:22.946Z,46
2022-10-06T01:57:03.348Z,48
2022-10-06T02:02:44.034Z,56
2022-10-06T02:08:24.248Z,56
2022-10-06T02:14:04.513Z,44
2022-10-06T02:19:44.679Z,46
2022-10-06T02:25:24.775Z,54
2022-10-06T02:31:05.339Z,54
2022-10-06T02:36:46.218Z,54
2022-10-06T02:42:26.323Z,52
2022-10-06T02:48:06.514Z,48
2022-10-06T02:53:46.693Z,48
2022-10-06T02:59:26.611Z,56
2022-10-06T03:05:06.767Z,48
2022-10-06T03:10:47.022Z,54
2022-10-06T03:16:27.849Z,52
2022-10-06T03:22:08.795Z,48
2022-10-06T03:27:49.014Z,40
2022-10-06T03:33:29.643Z,46
2022-10-06T03:39:09.731Z,54
2022-10-06T03:44:50.236Z,40
2022-10-06T03:50:30.979Z,56
2022-10-06T03:56:11.516Z,56
2022-10-06T04:01:51.846Z,56
2022-10-06T04:07:32.184Z,46
2022-10-06T04:13:12.775Z,52
2022-10-06T04:24:33.798Z,60
2022-10-06T04:30:14.490Z,46
2022-10-06T04:35:54.615Z,50
2022-10-06T04:41:34.868Z,54
2022-10-06T04:47:15.565Z,48
2022-10-06T04:52:56.389Z,44
2022-10-06T04:58:36.491Z,50
2022-10-06T05:04:17.136Z,38
2022-10-06T05:09:57.666Z,48
2022-10-06T05:15:38.657Z,54
2022-10-06T05:21:19.665Z,52
2022-10-06T05:27:02.487Z,40
2022-10-06T05:32:42.953Z,44
2022-10-06T05:38:23.269Z,56
2022-10-06T05:44:03.130Z,48
2022-10-06T05:49:43.392Z,46
2022-10-06T05:55:24.148Z,46
2022-10-06T06:01:04.524Z,48
2022-10-06T06:06:44.685Z,40
2022-10-06T06:12:25.810Z,56
2022-10-06T06:18:06.859Z,48
2022-10-06T06:23:47.084Z,44
2022-10-06T06:29:31.545Z,56
2022-10-06T06:35:12.187Z,46
2022-10-06T06:40:52.815Z,56
2022-10-06T06:52:14.525Z,44
2022-10-06T06:57:54.735Z,54
2022-10-06T07:03:59.712Z,58
2022-10-06T07:09:40.323Z,54
2022-10-06T07:15:20.631Z,40
2022-10-06T07:21:01.248Z,54
2022-10-06T07:26:41.632Z,54
2022-10-06T07:32:22.026Z,56
2022-10-06T07:38:02.714Z,56
2022-10-06T07:43:46.466Z,58
2022-10-06T07:49:26.884Z,58
2022-10-06T07:55:10.897Z,46
2022-10-06T08:06:32.141Z,58
2022-10-06T08:12:12.667Z,48
2022-10-06T08:17:52.791Z,66
2022-10-06T08:23:34.343Z,50
2022-10-06T08:29:14.806Z,48
2022-10-06T08:34:57.825Z,48
2022-10-06T08:40:39.299Z,48
2022-10-06T08:46:25.357Z,22
2022-10-06T08:52:05.828Z,8
2022-10-06T08:57:46.137Z,4
2022-10-06T09:03:26.338Z,6
2022-10-06T09:09:06.318Z,16
2022-10-06T09:14:48.922Z,22
2022-10-06T09:20:29.423Z,6
2022-10-06T09:26:09.764Z,12
2022-10-06T09:31:53.124Z,8
2022-10-06T09:37:35.540Z,10
2022-10-06T09:43:16.083Z,0
2022-10-06T09:48:56.447Z,0
2022-10-06T10:00:18.729Z,0
2022-10-06T10:05:58.580Z,0
2022-10-06T10:11:39.278Z,0
2022-10-06T10:17:19.627Z,0
2022-10-06T10:23:02.280Z,0
2022-10-06T10:28:43.584Z,0
2022-10-06T10:34:25.441Z,0
2022-10-06T10:40:05.703Z,0
2022-10-06T10:45:46.367Z,0
2022-10-06T10:51:32.125Z,0
2022-10-06T10:57:15.352Z,0
2022-10-06T11:02:56.571Z,0
2022-10-06T11:08:37.383Z,0
2022-10-06T11:14:17.013Z,0
2022-10-06T11:19:58.190Z,4
2022-10-06T11:25:37.717Z,0
2022-10-06T11:31:23.848Z,2
2022-10-06T11:37:06.853Z,0
2022-10-06T11:42:49.650Z,0
2022-10-06T11:48:30.172Z,0
2022-10-06T11:54:11.068Z,0
2022-10-06T11:59:51.734Z,0
2022-10-06T12:06:07.166Z,0
2022-10-06T12:11:49.862Z,0
2022-10-06T12:17:33.037Z,0
2022-10-06T12:23:13.299Z,0
2022-10-06T12:28:57.157Z,0
2022-10-06T12:34:37.676Z,0
2022-10-06T12:45:48.346Z,0
2022-10-06T12:51:29.642Z,0
2022-10-06T12:57:10.025Z,0
2022-10-06T13:02:51.672Z,0
2022-10-06T13:08:32.453Z,0
2022-10-06T13:14:12.839Z,0
2022-10-06T13:19:54.049Z,0
2022-10-06T13:25:38.143Z,0
2022-10-06T13:31:27.807Z,0
2022-10-06T13:37:15.537Z,0
2022-10-06T13:42:56.605Z,0
2022-10-06T13:48:43.026Z,0
2022-10-06T13:54:25.758Z,0
2022-10-06T14:00:09.586Z,0
2022-10-06T14:11:30.805Z,4
2022-10-06T14:17:11.058Z,10
2022-10-06T14:22:51.620Z,16
2022-10-06T14:28:32.606Z,58
2022-10-06T14:34:13.126Z,56
2022-10-06T14:39:54.740Z,52
2022-10-06T14:45:35.353Z,52
2022-10-06T14:51:15.880Z,60
2022-10-06T14:56:56.023Z,52
2022-10-06T15:02:36.956Z,48
2022-10-06T15:08:18.571Z,46
2022-10-06T15:13:58.838Z,48
2022-10-06T15:19:39.382Z,54
2022-10-06T15:25:20.273Z,44
2022-10-06T15:31:01.394Z,52
2022-10-06T15:36:42.158Z,54
2022-10-06T15:42:22.795Z,56
2022-10-06T15:48:03.140Z,50
2022-10-06T15:53:43.693Z,60
2022-10-06T16:05:04.337Z,46
2022-10-06T16:15:46.699Z,102
2022-10-06T16:21:27.129Z,50
2022-10-06T16:27:07.143Z,48
2022-10-06T16:32:50.452Z,58
2022-10-06T16:38:30.793Z,44
2022-10-06T16:44:14.450Z,48
2022-10-06T16:49:57.171Z,44
2022-10-06T16:55:37.755Z,56
2022-10-06T17:01:18.898Z,42
2022-10-06T17:07:03.017Z,44
2022-10-06T17:12:43.768Z,62
2022-10-06T17:18:23.813Z,54
2022-10-06T17:24:04.099Z,46
2022-10-06T17:29:44.861Z,48
2022-10-06T17:35:25.115Z,60
2022-10-06T17:41:06.041Z,40
2022-10-06T17:46:46.378Z,56
2022-10-06T17:52:26.775Z,48
2022-10-06T17:58:06.938Z,58
2022-10-06T18:03:50.075Z,56
2022-10-06T18:09:30.443Z,48
2022-10-06T18:15:10.795Z,46
2022-10-06T18:20:51.293Z,46
2022-10-06T18:26:31.866Z,56
2022-10-06T18:42:00.278Z,66
2022-10-06T18:47:41.633Z,56
2022-10-06T18:53:36.507Z,58
2022-10-06T18:59:17.478Z,50
2022-10-06T19:04:57.922Z,46
2022-10-06T19:10:46.207Z,56
2022-10-06T19:16:36.085Z,52
2022-10-06T19:22:17.410Z,48
2022-10-06T19:28:22.461Z,52
2022-10-06T19:34:09.574Z,52
2022-10-06T19:39:59.866Z,56
2022-10-06T19:45:46.571Z,46
2022-10-06T19:51:30.570Z,54
2022-10-06T19:57:20.324Z,56
2022-10-06T20:08:46.199Z,46
2022-10-06T20:14:40.110Z,52
2022-10-06T20:20:24.223Z,42
2022-10-06T20:26:07.207Z,60
2022-10-06T20:31:47.490Z,52
2022-10-06T20:37:28.261Z,52
2022-10-06T20:43:12.408Z,46
2022-10-06T20:48:58.640Z,58
2022-10-06T20:54:39.003Z,38
2022-10-06T21:00:22.882Z,54
2022-10-06T21:06:03.940Z,46
2022-10-06T21:11:44.622Z,56
2022-10-06T21:17:27.055Z,44
2022-10-06T21:23:10.038Z,46
2022-10-06T21:28:50.513Z,46
2022-10-06T21:34:30.808Z,56
2022-10-06T21:40:10.934Z,56
2022-10-06T21:46:31.946Z,48
2022-10-06T21:52:12.946Z,36
2022-10-06T21:57:53.122Z,54
2022-10-06T22:03:33.193Z,54
2022-10-06T22:09:13.364Z,46
2022-10-06T22:14:53.712Z,54
2022-10-06T22:20:36.759Z,42
2022-10-06T22:26:17.154Z,42
2022-10-06T22:31:57.592Z,38
2022-10-06T22:37:38.224Z,56
2022-10-06T22:43:18.587Z,56
2022-10-06T22:48:58.652Z,42
2022-10-06T22:54:41.879Z,56
2022-10-06T23:00:22.554Z,44
2022-10-06T23:06:04.375Z,46
2022-10-06T23:11:44.911Z,56
2022-10-06T23:17:26.289Z,56
2022-10-06T23:23:06.340Z,56
2022-10-06T23:28:51.878Z,46
2022-10-06T23:34:31.569Z,56
2022-10-06T23:40:11.662Z,42
2022-10-06T23:45:52.260Z,54
2022-10-06T23:51:39.938Z,44
2022-10-06T23:57:19.803Z,40
